sensor_id;sensor_type;location;lat;lon;timestamp;temperature;humidity
72277;SHT30;61204;49.980;8.358;2023-06-14T00:01:07;18.61;45.70
72277;SHT30;61204;49.980;8.358;2023-06-14T00:03:34;18.45;45.99
72277;SHT30;61204;49.980;8.358;2023-06-14T00:06:00;18.44;46.16
72277;SHT30;61204;49.980;8.358;2023-06-14T00:08:25;18.37;46.49
72277;SHT30;61204;49.980;8.358;2023-06-14T00:10:51;18.35;46.56
72277;SHT30;61204;49.980;8.358;2023-06-14T00:13:16;18.30;46.89
72277;SHT30;61204;49.980;8.358;2023-06-14T00:15:45;18.21;47.01
72277;SHT30;61204;49.980;8.358;2023-06-14T00:18:11;18.13;47.25
72277;SHT30;61204;49.980;8.358;2023-06-14T00:20:37;18.18;47.25
72277;SHT30;61204;49.980;8.358;2023-06-14T00:23:02;18.11;47.50
72277;SHT30;61204;49.980;8.358;2023-06-14T00:25:28;18.11;47.45
72277;SHT30;61204;49.980;8.358;2023-06-14T00:27:54;17.99;47.71
72277;SHT30;61204;49.980;8.358;2023-06-14T00:30:20;17.90;48.07
72277;SHT30;61204;49.980;8.358;2023-06-14T00:32:49;17.78;48.38
72277;SHT30;61204;49.980;8.358;2023-06-14T00:35:15;17.78;48.41
72277;SHT30;61204;49.980;8.358;2023-06-14T00:37:43;17.72;48.37
72277;SHT30;61204;49.980;8.358;2023-06-14T00:40:08;17.80;48.21
72277;SHT30;61204;49.980;8.358;2023-06-14T00:42:34;17.79;48.24
72277;SHT30;61204;49.980;8.358;2023-06-14T00:45:00;17.76;48.48
72277;SHT30;61204;49.980;8.358;2023-06-14T00:47:26;17.63;48.79
72277;SHT30;61204;49.980;8.358;2023-06-14T00:49:53;17.55;49.14
72277;SHT30;61204;49.980;8.358;2023-06-14T00:52:23;17.52;49.26
72277;SHT30;61204;49.980;8.358;2023-06-14T00:54:51;17.48;49.39
72277;SHT30;61204;49.980;8.358;2023-06-14T00:57:20;17.48;49.27
72277;SHT30;61204;49.980;8.358;2023-06-14T00:59:49;17.51;49.22
72277;SHT30;61204;49.980;8.358;2023-06-14T01:02:15;17.49;49.30
72277;SHT30;61204;49.980;8.358;2023-06-14T01:04:47;17.39;49.65
72277;SHT30;61204;49.980;8.358;2023-06-14T01:07:25;17.30;49.82
72277;SHT30;61204;49.980;8.358;2023-06-14T01:13:10;17.23;50.10
72277;SHT30;61204;49.980;8.358;2023-06-14T01:15:45;17.16;50.05
72277;SHT30;61204;49.980;8.358;2023-06-14T01:18:12;17.08;50.58
72277;SHT30;61204;49.980;8.358;2023-06-14T01:20:45;17.03;50.52
72277;SHT30;61204;49.980;8.358;2023-06-14T01:23:20;16.99;50.55
72277;SHT30;61204;49.980;8.358;2023-06-14T01:25:47;16.97;50.63
72277;SHT30;61204;49.980;8.358;2023-06-14T01:28:19;16.91;50.73
72277;SHT30;61204;49.980;8.358;2023-06-14T01:30:49;16.94;50.68
72277;SHT30;61204;49.980;8.358;2023-06-14T01:33:23;16.87;50.82
72277;SHT30;61204;49.980;8.358;2023-06-14T01:35:52;16.89;51.00
72277;SHT30;61204;49.980;8.358;2023-06-14T01:38:22;16.82;51.09
72277;SHT30;61204;49.980;8.358;2023-06-14T01:40:54;16.66;51.56
72277;SHT30;61204;49.980;8.358;2023-06-14T01:43:22;16.61;51.61
72277;SHT30;61204;49.980;8.358;2023-06-14T01:45:51;16.58;51.79
72277;SHT30;61204;49.980;8.358;2023-06-14T01:48:18;16.51;51.90
72277;SHT30;61204;49.980;8.358;2023-06-14T01:50:45;16.49;52.06
72277;SHT30;61204;49.980;8.358;2023-06-14T01:53:15;16.45;51.97
72277;SHT30;61204;49.980;8.358;2023-06-14T01:55:41;16.54;51.70
72277;SHT30;61204;49.980;8.358;2023-06-14T01:58:10;16.66;51.22
72277;SHT30;61204;49.980;8.358;2023-06-14T02:00:36;16.63;51.33
72277;SHT30;61204;49.980;8.358;2023-06-14T02:03:01;16.55;51.62
72277;SHT30;61204;49.980;8.358;2023-06-14T02:05:29;16.49;51.84
72277;SHT30;61204;49.980;8.358;2023-06-14T02:07:59;16.41;51.99
72277;SHT30;61204;49.980;8.358;2023-06-14T02:10:27;16.42;52.02
72277;SHT30;61204;49.980;8.358;2023-06-14T02:12:57;16.47;51.92
72277;SHT30;61204;49.980;8.358;2023-06-14T02:15:25;16.47;51.79
72277;SHT30;61204;49.980;8.358;2023-06-14T02:17:52;16.37;52.04
72277;SHT30;61204;49.980;8.358;2023-06-14T02:20:19;16.22;52.41
72277;SHT30;61204;49.980;8.358;2023-06-14T02:22:47;16.20;52.54
72277;SHT30;61204;49.980;8.358;2023-06-14T02:25:12;16.13;52.79
72277;SHT30;61204;49.980;8.358;2023-06-14T02:27:38;16.14;52.62
72277;SHT30;61204;49.980;8.358;2023-06-14T02:30:06;16.16;52.53
72277;SHT30;61204;49.980;8.358;2023-06-14T02:32:34;16.18;52.57
72277;SHT30;61204;49.980;8.358;2023-06-14T02:35:01;16.16;52.52
72277;SHT30;61204;49.980;8.358;2023-06-14T02:37:26;16.22;52.26
72277;SHT30;61204;49.980;8.358;2023-06-14T02:39:52;16.32;51.98
72277;SHT30;61204;49.980;8.358;2023-06-14T02:42:20;16.48;51.60
72277;SHT30;61204;49.980;8.358;2023-06-14T02:44:45;16.35;51.78
72277;SHT30;61204;49.980;8.358;2023-06-14T02:47:16;16.41;51.63
72277;SHT30;61204;49.980;8.358;2023-06-14T02:49:42;16.29;51.87
72277;SHT30;61204;49.980;8.358;2023-06-14T02:52:08;16.41;51.55
72277;SHT30;61204;49.980;8.358;2023-06-14T02:54:34;16.48;51.32
72277;SHT30;61204;49.980;8.358;2023-06-14T02:56:59;16.48;51.48
72277;SHT30;61204;49.980;8.358;2023-06-14T02:59:27;16.44;51.37
72277;SHT30;61204;49.980;8.358;2023-06-14T03:01:53;16.40;51.74
72277;SHT30;61204;49.980;8.358;2023-06-14T03:04:21;16.37;51.84
72277;SHT30;61204;49.980;8.358;2023-06-14T03:06:46;16.29;51.89
72277;SHT30;61204;49.980;8.358;2023-06-14T03:09:17;16.25;52.14
72277;SHT30;61204;49.980;8.358;2023-06-14T03:11:42;16.28;52.16
72277;SHT30;61204;49.980;8.358;2023-06-14T03:14:08;16.25;52.23
72277;SHT30;61204;49.980;8.358;2023-06-14T03:16:34;16.25;52.15
72277;SHT30;61204;49.980;8.358;2023-06-14T03:19:02;16.37;51.93
72277;SHT30;61204;49.980;8.358;2023-06-14T03:21:28;16.35;51.93
72277;SHT30;61204;49.980;8.358;2023-06-14T03:23:54;16.38;51.80
72277;SHT30;61204;49.980;8.358;2023-06-14T03:26:19;16.31;52.15
72277;SHT30;61204;49.980;8.358;2023-06-14T03:28:47;16.31;52.01
72277;SHT30;61204;49.980;8.358;2023-06-14T03:31:16;16.45;51.64
72277;SHT30;61204;49.980;8.358;2023-06-14T03:33:42;16.41;51.70
72277;SHT30;61204;49.980;8.358;2023-06-14T03:36:08;16.34;51.86
72277;SHT30;61204;49.980;8.358;2023-06-14T03:38:34;16.41;51.77
72277;SHT30;61204;49.980;8.358;2023-06-14T03:40:59;16.34;51.95
72277;SHT30;61204;49.980;8.358;2023-06-14T03:43:25;16.38;51.76
72277;SHT30;61204;49.980;8.358;2023-06-14T03:45:51;16.44;51.58
72277;SHT30;61204;49.980;8.358;2023-06-14T03:48:17;16.40;51.85
72277;SHT30;61204;49.980;8.358;2023-06-14T03:50:42;16.49;51.54
72277;SHT30;61204;49.980;8.358;2023-06-14T03:53:10;16.52;51.60
72277;SHT30;61204;49.980;8.358;2023-06-14T03:55:38;16.59;51.43
72277;SHT30;61204;49.980;8.358;2023-06-14T03:58:04;16.65;51.38
72277;SHT30;61204;49.980;8.358;2023-06-14T04:00:30;16.72;51.28
72277;SHT30;61204;49.980;8.358;2023-06-14T04:02:57;16.75;51.18
72277;SHT30;61204;49.980;8.358;2023-06-14T04:05:22;16.72;51.36
72277;SHT30;61204;49.980;8.358;2023-06-14T04:07:48;16.73;51.30
72277;SHT30;61204;49.980;8.358;2023-06-14T04:10:15;16.87;50.95
72277;SHT30;61204;49.980;8.358;2023-06-14T04:12:41;16.97;50.71
72277;SHT30;61204;49.980;8.358;2023-06-14T04:15:08;17.13;50.37
72277;SHT30;61204;49.980;8.358;2023-06-14T04:17:34;17.17;50.42
72277;SHT30;61204;49.980;8.358;2023-06-14T04:20:01;17.27;50.04
72277;SHT30;61204;49.980;8.358;2023-06-14T04:22:29;17.35;49.69
72277;SHT30;61204;49.980;8.358;2023-06-14T04:24:55;17.34;49.95
72277;SHT30;61204;49.980;8.358;2023-06-14T04:27:22;17.42;49.76
72277;SHT30;61204;49.980;8.358;2023-06-14T04:29:56;17.45;49.91
72277;SHT30;61204;49.980;8.358;2023-06-14T04:32:25;17.56;49.57
72277;SHT30;61204;49.980;8.358;2023-06-14T04:34:53;17.62;49.45
72277;SHT30;61204;49.980;8.358;2023-06-14T04:37:20;17.68;49.50
72277;SHT30;61204;49.980;8.358;2023-06-14T04:39:47;17.78;49.24
72277;SHT30;61204;49.980;8.358;2023-06-14T04:42:18;17.82;49.54
72277;SHT30;61204;49.980;8.358;2023-06-14T04:44:45;17.93;48.92
72277;SHT30;61204;49.980;8.358;2023-06-14T04:47:14;18.00;48.54
72277;SHT30;61204;49.980;8.358;2023-06-14T04:49:41;18.10;48.59
72277;SHT30;61204;49.980;8.358;2023-06-14T04:52:12;18.20;48.37
72277;SHT30;61204;49.980;8.358;2023-06-14T04:54:39;18.33;48.10
72277;SHT30;61204;49.980;8.358;2023-06-14T04:57:08;18.38;47.62
72277;SHT30;61204;49.980;8.358;2023-06-14T04:59:41;18.47;47.72
72277;SHT30;61204;49.980;8.358;2023-06-14T05:02:09;18.55;47.66
72277;SHT30;61204;49.980;8.358;2023-06-14T05:04:38;18.65;47.34
72277;SHT30;61204;49.980;8.358;2023-06-14T05:07:07;18.72;47.31
72277;SHT30;61204;49.980;8.358;2023-06-14T05:09:34;18.75;47.33
72277;SHT30;61204;49.980;8.358;2023-06-14T05:12:00;18.89;47.23
72277;SHT30;61204;49.980;8.358;2023-06-14T05:14:29;18.95;47.02
72277;SHT30;61204;49.980;8.358;2023-06-14T05:16:55;18.96;46.98
72277;SHT30;61204;49.980;8.358;2023-06-14T05:19:23;19.17;46.88
72277;SHT30;61204;49.980;8.358;2023-06-14T05:21:48;19.18;46.37
72277;SHT30;61204;49.980;8.358;2023-06-14T05:24:14;19.32;46.46
72277;SHT30;61204;49.980;8.358;2023-06-14T05:26:40;19.51;46.34
72277;SHT30;61204;49.980;8.358;2023-06-14T05:29:06;19.65;46.34
72277;SHT30;61204;49.980;8.358;2023-06-14T05:31:32;19.75;45.74
72277;SHT30;61204;49.980;8.358;2023-06-14T05:33:58;19.90;45.79
72277;SHT30;61204;49.980;8.358;2023-06-14T05:36:26;19.78;45.58
72277;SHT30;61204;49.980;8.358;2023-06-14T05:38:53;19.98;45.54
72277;SHT30;61204;49.980;8.358;2023-06-14T05:41:27;19.98;45.07
72277;SHT30;61204;49.980;8.358;2023-06-14T05:43:55;20.06;44.94
72277;SHT30;61204;49.980;8.358;2023-06-14T05:46:21;20.18;44.84
72277;SHT30;61204;49.980;8.358;2023-06-14T05:48:49;20.16;44.73
72277;SHT30;61204;49.980;8.358;2023-06-14T05:51:16;20.13;44.64
72277;SHT30;61204;49.980;8.358;2023-06-14T05:53:48;20.34;44.63
72277;SHT30;61204;49.980;8.358;2023-06-14T05:56:17;20.25;44.38
72277;SHT30;61204;49.980;8.358;2023-06-14T05:58:45;20.47;43.98
72277;SHT30;61204;49.980;8.358;2023-06-14T06:01:11;20.72;43.55
72277;SHT30;61204;49.980;8.358;2023-06-14T06:03:38;20.89;43.51
72277;SHT30;61204;49.980;8.358;2023-06-14T06:06:04;21.10;43.16
72277;SHT30;61204;49.980;8.358;2023-06-14T06:08:30;21.19;43.07
72277;SHT30;61204;49.980;8.358;2023-06-14T06:10:56;21.28;43.02
72277;SHT30;61204;49.980;8.358;2023-06-14T06:13:22;21.20;43.10
72277;SHT30;61204;49.980;8.358;2023-06-14T06:15:48;21.44;42.90
72277;SHT30;61204;49.980;8.358;2023-06-14T06:18:13;21.57;42.46
72277;SHT30;61204;49.980;8.358;2023-06-14T06:20:41;21.35;43.25
72277;SHT30;61204;49.980;8.358;2023-06-14T06:23:06;21.42;42.81
72277;SHT30;61204;49.980;8.358;2023-06-14T06:25:33;21.93;42.23
72277;SHT30;61204;49.980;8.358;2023-06-14T06:27:58;21.90;41.83
72277;SHT30;61204;49.980;8.358;2023-06-14T06:30:24;21.38;42.90
72277;SHT30;61204;49.980;8.358;2023-06-14T06:32:52;21.63;42.76
72277;SHT30;61204;49.980;8.358;2023-06-14T06:35:18;21.48;42.81
72277;SHT30;61204;49.980;8.358;2023-06-14T06:37:44;21.34;43.27
72277;SHT30;61204;49.980;8.358;2023-06-14T06:40:10;21.26;43.64
72277;SHT30;61204;49.980;8.358;2023-06-14T06:42:37;21.42;43.12
72277;SHT30;61204;49.980;8.358;2023-06-14T06:45:04;21.93;42.65
72277;SHT30;61204;49.980;8.358;2023-06-14T06:47:30;21.93;42.76
72277;SHT30;61204;49.980;8.358;2023-06-14T06:49:58;22.27;41.86
72277;SHT30;61204;49.980;8.358;2023-06-14T06:52:23;22.41;41.81
72277;SHT30;61204;49.980;8.358;2023-06-14T06:54:49;22.38;41.24
72277;SHT30;61204;49.980;8.358;2023-06-14T06:57:20;22.38;41.90
72277;SHT30;61204;49.980;8.358;2023-06-14T06:59:48;22.54;41.32
72277;SHT30;61204;49.980;8.358;2023-06-14T07:02:13;22.76;41.04
72277;SHT30;61204;49.980;8.358;2023-06-14T07:04:39;22.55;41.14
72277;SHT30;61204;49.980;8.358;2023-06-14T07:07:05;22.10;42.06
72277;SHT30;61204;49.980;8.358;2023-06-14T07:09:33;22.54;41.57
72277;SHT30;61204;49.980;8.358;2023-06-14T07:11:58;22.37;41.85
72277;SHT30;61204;49.980;8.358;2023-06-14T07:14:23;22.93;40.98
72277;SHT30;61204;49.980;8.358;2023-06-14T07:16:49;22.44;41.55
72277;SHT30;61204;49.980;8.358;2023-06-14T07:19:14;23.16;41.09
72277;SHT30;61204;49.980;8.358;2023-06-14T07:21:40;23.90;39.32
72277;SHT30;61204;49.980;8.358;2023-06-14T07:24:06;24.43;38.06
72277;SHT30;61204;49.980;8.358;2023-06-14T07:26:33;24.98;37.89
72277;SHT30;61204;49.980;8.358;2023-06-14T07:28:58;25.13;37.11
72277;SHT30;61204;49.980;8.358;2023-06-14T07:31:24;24.75;37.46
72277;SHT30;61204;49.980;8.358;2023-06-14T07:33:49;24.09;38.93
72277;SHT30;61204;49.980;8.358;2023-06-14T07:36:15;24.36;38.38
72277;SHT30;61204;49.980;8.358;2023-06-14T07:38:40;23.85;38.65
72277;SHT30;61204;49.980;8.358;2023-06-14T07:41:06;24.19;38.13
72277;SHT30;61204;49.980;8.358;2023-06-14T07:43:31;24.02;38.40
72277;SHT30;61204;49.980;8.358;2023-06-14T07:45:57;24.48;37.47
72277;SHT30;61204;49.980;8.358;2023-06-14T07:48:26;24.41;37.52
72277;SHT30;61204;49.980;8.358;2023-06-14T07:50:51;24.33;37.20
72277;SHT30;61204;49.980;8.358;2023-06-14T07:53:17;24.58;37.41
72277;SHT30;61204;49.980;8.358;2023-06-14T07:55:42;24.91;36.80
72277;SHT30;61204;49.980;8.358;2023-06-14T07:58:10;25.55;36.10
72277;SHT30;61204;49.980;8.358;2023-06-14T08:00:36;24.99;37.02
72277;SHT30;61204;49.980;8.358;2023-06-14T08:03:01;25.80;35.81
72277;SHT30;61204;49.980;8.358;2023-06-14T08:05:27;26.17;34.69
72277;SHT30;61204;49.980;8.358;2023-06-14T08:07:54;25.98;35.74
72277;SHT30;61204;49.980;8.358;2023-06-14T08:10:21;26.41;35.21
72277;SHT30;61204;49.980;8.358;2023-06-14T08:12:47;26.43;35.47
72277;SHT30;61204;49.980;8.358;2023-06-14T08:15:17;26.99;34.59
72277;SHT30;61204;49.980;8.358;2023-06-14T08:17:43;26.89;33.99
72277;SHT30;61204;49.980;8.358;2023-06-14T08:20:09;27.06;33.70
72277;SHT30;61204;49.980;8.358;2023-06-14T08:22:38;27.00;33.89
72277;SHT30;61204;49.980;8.358;2023-06-14T08:25:05;27.55;33.71
72277;SHT30;61204;49.980;8.358;2023-06-14T08:27:31;27.62;32.65
72277;SHT30;61204;49.980;8.358;2023-06-14T08:29:57;27.15;32.42
72277;SHT30;61204;49.980;8.358;2023-06-14T08:32:22;26.82;34.06
72277;SHT30;61204;49.980;8.358;2023-06-14T08:34:48;26.16;34.76
72277;SHT30;61204;49.980;8.358;2023-06-14T08:37:16;27.26;34.28
72277;SHT30;61204;49.980;8.358;2023-06-14T08:39:44;27.19;33.96
72277;SHT30;61204;49.980;8.358;2023-06-14T08:42:10;27.29;33.86
72277;SHT30;61204;49.980;8.358;2023-06-14T08:44:37;26.15;35.25
72277;SHT30;61204;49.980;8.358;2023-06-14T08:47:03;25.15;37.21
72277;SHT30;61204;49.980;8.358;2023-06-14T08:49:31;25.75;36.55
72277;SHT30;61204;49.980;8.358;2023-06-14T08:51:59;27.33;35.06
72277;SHT30;61204;49.980;8.358;2023-06-14T08:54:29;27.70;32.36
72277;SHT30;61204;49.980;8.358;2023-06-14T08:57:01;27.77;32.81
72277;SHT30;61204;49.980;8.358;2023-06-14T08:59:29;27.58;33.20
72277;SHT30;61204;49.980;8.358;2023-06-14T09:01:59;27.74;33.14
72277;SHT30;61204;49.980;8.358;2023-06-14T09:04:25;26.13;35.07
72277;SHT30;61204;49.980;8.358;2023-06-14T09:06:56;27.23;34.04
72277;SHT30;61204;49.980;8.358;2023-06-14T09:09:23;28.22;33.19
72277;SHT30;61204;49.980;8.358;2023-06-14T09:11:51;27.36;33.21
72277;SHT30;61204;49.980;8.358;2023-06-14T09:14:18;27.95;32.52
72277;SHT30;61204;49.980;8.358;2023-06-14T09:16:46;28.04;32.42
72277;SHT30;61204;49.980;8.358;2023-06-14T09:19:21;27.26;33.30
72277;SHT30;61204;49.980;8.358;2023-06-14T09:21:50;27.89;32.44
72277;SHT30;61204;49.980;8.358;2023-06-14T09:24:18;27.91;31.88
72277;SHT30;61204;49.980;8.358;2023-06-14T09:26:47;27.55;32.05
72277;SHT30;61204;49.980;8.358;2023-06-14T09:29:13;27.89;31.46
72277;SHT30;61204;49.980;8.358;2023-06-14T09:31:41;28.49;31.10
72277;SHT30;61204;49.980;8.358;2023-06-14T09:34:07;29.39;29.99
72277;SHT30;61204;49.980;8.358;2023-06-14T09:36:34;29.67;28.79
72277;SHT30;61204;49.980;8.358;2023-06-14T09:39:03;28.49;30.62
72277;SHT30;61204;49.980;8.358;2023-06-14T09:41:36;28.10;30.12
72277;SHT30;61204;49.980;8.358;2023-06-14T09:44:04;28.96;30.09
72277;SHT30;61204;49.980;8.358;2023-06-14T09:46:32;28.90;29.64
72277;SHT30;61204;49.980;8.358;2023-06-14T09:48:58;28.92;29.37
72277;SHT30;61204;49.980;8.358;2023-06-14T09:51:27;29.29;29.49
72277;SHT30;61204;49.980;8.358;2023-06-14T09:53:58;29.43;28.76
72277;SHT30;61204;49.980;8.358;2023-06-14T09:56:31;29.94;29.06
72277;SHT30;61204;49.980;8.358;2023-06-14T09:59:02;29.39;29.19
72277;SHT30;61204;49.980;8.358;2023-06-14T10:01:35;30.30;28.65
72277;SHT30;61204;49.980;8.358;2023-06-14T10:04:05;30.94;28.17
72277;SHT30;61204;49.980;8.358;2023-06-14T10:06:32;31.45;27.30
72277;SHT30;61204;49.980;8.358;2023-06-14T10:09:03;30.36;27.92
72277;SHT30;61204;49.980;8.358;2023-06-14T10:11:32;30.50;27.71
72277;SHT30;61204;49.980;8.358;2023-06-14T10:14:02;29.81;29.00
72277;SHT30;61204;49.980;8.358;2023-06-14T10:16:46;28.09;31.42
72277;SHT30;61204;49.980;8.358;2023-06-14T10:19:40;27.09;32.49
72277;SHT30;61204;49.980;8.358;2023-06-14T10:22:29;27.70;31.87
72277;SHT30;61204;49.980;8.358;2023-06-14T10:24:59;27.81;31.28
72277;SHT30;61204;49.980;8.358;2023-06-14T10:27:24;28.10;31.32
72277;SHT30;61204;49.980;8.358;2023-06-14T10:32:18;27.85;31.59
72277;SHT30;61204;49.980;8.358;2023-06-14T10:34:45;28.63;30.48
72277;SHT30;61204;49.980;8.358;2023-06-14T10:37:20;28.61;29.89
72277;SHT30;61204;49.980;8.358;2023-06-14T10:39:46;28.53;30.89
72277;SHT30;61204;49.980;8.358;2023-06-14T10:42:13;28.37;30.89
72277;SHT30;61204;49.980;8.358;2023-06-14T10:44:47;27.99;30.70
72277;SHT30;61204;49.980;8.358;2023-06-14T10:47:34;29.54;28.77
72277;SHT30;61204;49.980;8.358;2023-06-14T10:50:10;29.70;27.95
72277;SHT30;61204;49.980;8.358;2023-06-14T10:52:45;31.11;27.47
72277;SHT30;61204;49.980;8.358;2023-06-14T10:55:15;30.73;27.78
72277;SHT30;61204;49.980;8.358;2023-06-14T10:57:45;30.70;27.86
72277;SHT30;61204;49.980;8.358;2023-06-14T11:00:22;31.32;27.05
72277;SHT30;61204;49.980;8.358;2023-06-14T11:06:15;32.01;26.63
72277;SHT30;61204;49.980;8.358;2023-06-14T11:08:56;32.04;26.46
72277;SHT30;61204;49.980;8.358;2023-06-14T11:11:48;30.92;28.07
72277;SHT30;61204;49.980;8.358;2023-06-14T11:14:16;31.90;26.61
72277;SHT30;61204;49.980;8.358;2023-06-14T11:16:47;32.42;26.06
72277;SHT30;61204;49.980;8.358;2023-06-14T11:19:14;32.49;25.29
72277;SHT30;61204;49.980;8.358;2023-06-14T11:21:42;32.48;26.32
72277;SHT30;61204;49.980;8.358;2023-06-14T11:24:11;32.72;25.27
72277;SHT30;61204;49.980;8.358;2023-06-14T11:26:37;32.00;25.59
72277;SHT30;61204;49.980;8.358;2023-06-14T11:29:03;32.29;25.61
72277;SHT30;61204;49.980;8.358;2023-06-14T11:31:31;32.84;25.00
72277;SHT30;61204;49.980;8.358;2023-06-14T11:33:58;32.00;26.38
72277;SHT30;61204;49.980;8.358;2023-06-14T11:36:27;32.92;25.46
72277;SHT30;61204;49.980;8.358;2023-06-14T11:39:03;33.15;26.10
72277;SHT30;61204;49.980;8.358;2023-06-14T11:41:41;34.03;24.82
72277;SHT30;61204;49.980;8.358;2023-06-14T11:44:11;32.76;25.05
72277;SHT30;61204;49.980;8.358;2023-06-14T11:46:37;33.38;24.96
72277;SHT30;61204;49.980;8.358;2023-06-14T11:49:03;32.17;25.88
72277;SHT30;61204;49.980;8.358;2023-06-14T11:51:33;31.40;27.01
72277;SHT30;61204;49.980;8.358;2023-06-14T11:54:01;31.76;26.83
72277;SHT30;61204;49.980;8.358;2023-06-14T11:56:28;32.42;26.26
72277;SHT30;61204;49.980;8.358;2023-06-14T11:58:55;33.34;24.96
72277;SHT30;61204;49.980;8.358;2023-06-14T12:01:22;33.77;24.77
72277;SHT30;61204;49.980;8.358;2023-06-14T12:03:49;33.41;25.15
72277;SHT30;61204;49.980;8.358;2023-06-14T12:06:16;31.83;26.79
72277;SHT30;61204;49.980;8.358;2023-06-14T12:08:50;31.02;27.43
72277;SHT30;61204;49.980;8.358;2023-06-14T12:11:16;31.14;27.74
72277;SHT30;61204;49.980;8.358;2023-06-14T12:13:42;30.85;27.96
72277;SHT30;61204;49.980;8.358;2023-06-14T12:16:09;29.15;30.04
72277;SHT30;61204;49.980;8.358;2023-06-14T12:18:37;28.39;30.47
72277;SHT30;61204;49.980;8.358;2023-06-14T12:21:09;29.11;30.00
72277;SHT30;61204;49.980;8.358;2023-06-14T12:23:48;29.08;29.63
72277;SHT30;61204;49.980;8.358;2023-06-14T12:26:18;28.44;30.69
72277;SHT30;61204;49.980;8.358;2023-06-14T12:28:45;28.57;30.21
72277;SHT30;61204;49.980;8.358;2023-06-14T12:31:14;29.37;29.61
72277;SHT30;61204;49.980;8.358;2023-06-14T12:33:41;29.64;28.81
72277;SHT30;61204;49.980;8.358;2023-06-14T12:36:08;30.33;28.47
72277;SHT30;61204;49.980;8.358;2023-06-14T12:38:36;31.23;26.36
72277;SHT30;61204;49.980;8.358;2023-06-14T12:41:04;30.60;27.42
72277;SHT30;61204;49.980;8.358;2023-06-14T12:43:32;30.64;28.00
72277;SHT30;61204;49.980;8.358;2023-06-14T12:45:58;30.87;27.59
72277;SHT30;61204;49.980;8.358;2023-06-14T12:48:24;30.70;27.86
72277;SHT30;61204;49.980;8.358;2023-06-14T12:50:59;30.77;27.60
72277;SHT30;61204;49.980;8.358;2023-06-14T12:53:24;30.41;28.28
72277;SHT30;61204;49.980;8.358;2023-06-14T12:55:50;30.09;28.23
72277;SHT30;61204;49.980;8.358;2023-06-14T12:58:15;29.11;29.59
72277;SHT30;61204;49.980;8.358;2023-06-14T13:00:47;27.15;31.61
72277;SHT30;61204;49.980;8.358;2023-06-14T13:03:13;27.30;31.44
72277;SHT30;61204;49.980;8.358;2023-06-14T13:05:38;27.61;30.58
72277;SHT30;61204;49.980;8.358;2023-06-14T13:08:07;28.20;30.02
72277;SHT30;61204;49.980;8.358;2023-06-14T13:10:35;28.84;29.52
72277;SHT30;61204;49.980;8.358;2023-06-14T13:13:01;29.68;28.84
72277;SHT30;61204;49.980;8.358;2023-06-14T13:15:27;30.29;28.38
72277;SHT30;61204;49.980;8.358;2023-06-14T13:17:53;28.77;29.41
72277;SHT30;61204;49.980;8.358;2023-06-14T13:20:18;29.68;28.79
72277;SHT30;61204;49.980;8.358;2023-06-14T13:22:48;30.12;27.65
72277;SHT30;61204;49.980;8.358;2023-06-14T13:25:14;28.94;28.50
72277;SHT30;61204;49.980;8.358;2023-06-14T13:27:42;29.18;28.40
72277;SHT30;61204;49.980;8.358;2023-06-14T13:30:08;28.64;28.38
72277;SHT30;61204;49.980;8.358;2023-06-14T13:32:36;28.90;27.83
72277;SHT30;61204;49.980;8.358;2023-06-14T13:35:01;28.96;27.94
72277;SHT30;61204;49.980;8.358;2023-06-14T13:37:29;28.35;29.33
72277;SHT30;61204;49.980;8.358;2023-06-14T13:39:54;27.23;30.48
72277;SHT30;61204;49.980;8.358;2023-06-14T13:42:20;26.75;31.59
72277;SHT30;61204;49.980;8.358;2023-06-14T13:44:46;26.94;31.60
72277;SHT30;61204;49.980;8.358;2023-06-14T13:47:11;27.44;31.06
72277;SHT30;61204;49.980;8.358;2023-06-14T13:49:39;26.80;31.39
72277;SHT30;61204;49.980;8.358;2023-06-14T13:52:05;26.48;32.34
72277;SHT30;61204;49.980;8.358;2023-06-14T13:54:30;26.51;31.59
72277;SHT30;61204;49.980;8.358;2023-06-14T13:56:56;26.99;31.16
72277;SHT30;61204;49.980;8.358;2023-06-14T13:59:21;26.87;30.39
72277;SHT30;61204;49.980;8.358;2023-06-14T14:01:48;27.23;30.02
72277;SHT30;61204;49.980;8.358;2023-06-14T14:04:13;28.01;29.45
72277;SHT30;61204;49.980;8.358;2023-06-14T14:06:41;27.46;29.76
72277;SHT30;61204;49.980;8.358;2023-06-14T14:09:10;27.20;29.55
72277;SHT30;61204;49.980;8.358;2023-06-14T14:11:38;27.43;29.40
72277;SHT30;61204;49.980;8.358;2023-06-14T14:14:04;27.43;30.43
72277;SHT30;61204;49.980;8.358;2023-06-14T14:16:30;26.74;30.78
72277;SHT30;61204;49.980;8.358;2023-06-14T14:18:55;26.06;32.59
72277;SHT30;61204;49.980;8.358;2023-06-14T14:21:21;26.00;32.53
72277;SHT30;61204;49.980;8.358;2023-06-14T14:23:46;25.91;32.51
72277;SHT30;61204;49.980;8.358;2023-06-14T14:26:12;25.77;32.78
72277;SHT30;61204;49.980;8.358;2023-06-14T14:28:37;25.60;32.02
72277;SHT30;61204;49.980;8.358;2023-06-14T14:31:03;25.13;33.40
72277;SHT30;61204;49.980;8.358;2023-06-14T14:33:28;24.83;33.73
72277;SHT30;61204;49.980;8.358;2023-06-14T14:35:53;25.05;33.63
72277;SHT30;61204;49.980;8.358;2023-06-14T14:38:19;26.23;32.06
72277;SHT30;61204;49.980;8.358;2023-06-14T14:40:44;27.25;30.39
72277;SHT30;61204;49.980;8.358;2023-06-14T14:43:10;28.26;29.75
72277;SHT30;61204;49.980;8.358;2023-06-14T14:45:36;29.26;28.75
72277;SHT30;61204;49.980;8.358;2023-06-14T14:48:02;29.95;27.40
72277;SHT30;61204;49.980;8.358;2023-06-14T14:50:28;30.28;26.73
72277;SHT30;61204;49.980;8.358;2023-06-14T14:52:54;29.74;27.09
72277;SHT30;61204;49.980;8.358;2023-06-14T14:55:22;29.53;27.12
72277;SHT30;61204;49.980;8.358;2023-06-14T14:57:48;27.87;29.53
72277;SHT30;61204;49.980;8.358;2023-06-14T15:00:18;27.22;30.49
72277;SHT30;61204;49.980;8.358;2023-06-14T15:02:46;26.95;29.64
72277;SHT30;61204;49.980;8.358;2023-06-14T15:05:11;27.61;28.83
72277;SHT30;61204;49.980;8.358;2023-06-14T15:07:36;28.26;28.53
72277;SHT30;61204;49.980;8.358;2023-06-14T15:10:07;29.04;29.07
72277;SHT30;61204;49.980;8.358;2023-06-14T15:12:34;28.57;29.87
72277;SHT30;61204;49.980;8.358;2023-06-14T15:15:03;28.39;30.09
72277;SHT30;61204;49.980;8.358;2023-06-14T15:17:29;28.54;30.03
72277;SHT30;61204;49.980;8.358;2023-06-14T15:19:55;28.26;30.51
72277;SHT30;61204;49.980;8.358;2023-06-14T15:22:23;27.87;30.43
72277;SHT30;61204;49.980;8.358;2023-06-14T15:24:48;27.10;31.44
72277;SHT30;61204;49.980;8.358;2023-06-14T15:27:14;26.94;31.28
72277;SHT30;61204;49.980;8.358;2023-06-14T15:29:41;27.44;31.31
72277;SHT30;61204;49.980;8.358;2023-06-14T15:32:07;28.44;30.19
72277;SHT30;61204;49.980;8.358;2023-06-14T15:34:33;28.39;30.09
72277;SHT30;61204;49.980;8.358;2023-06-14T15:36:59;28.33;29.20
72277;SHT30;61204;49.980;8.358;2023-06-14T15:39:25;28.10;29.89
72277;SHT30;61204;49.980;8.358;2023-06-14T15:41:52;28.25;30.04